logo
Search for airport 
image banner adimage banner adimage banner ad
image banner ad

SVEK - Casigua

Located in El Cubo, Venezuela

ICAO - SVEK, IATA -

Data provided by Airmate  

General information

Coordinates: N8°48'0" W72°33'60"
Elevation is 452 feet MSL.
 
View others Airports in Zulia

Operational data

Special qualification required
Current time UTC:
Current local time:
Weather at : - ( 0 km )
METAR: UMMS 191411Z 22007G11MPS 9999 TS SCT060CB 28/17 Q1010 NOSIG
View NOTAMs / SUP AIP / TFR affecting this airport [VIEW]
Communications frequencies: [VIEW]

Runways:

RWY identifierQFULength (ft)Width (ft)SurfaceLDA (ft)
0900UNK
2700UNK

Airport contact information

Address: El Cubo Venezuela

Satellite view of SVEK